ADDS METAR Data INFO
IDs: Format: Raw Decoded Include TAF

Data at: 2007 UTC 19 Oct 2017

KATP 191915Z AUTO 12015KT 9SM FEW022 FEW027 FEW033 28/23 A3004 RMK A01
KATP 191855Z AUTO 18.96000019KT 9SM FEW021 28/23 A3005 RMK A01
KATP 191835Z AUTO 12016KT 10SM FEW020 FEW038 28/23 A3005 RMK A01
KATP 191815Z AUTO 12018KT 9SM FEW021 28/23 A3006 RMK A01
KATP 191755Z AUTO 11017KT 9SM FEW021 28/24 A3007 RMK A01
KATP 191735Z AUTO 11017KT 10SM FEW022 FEW031 SCT060 28/23 A3008 RMK A01
KATP 191715Z AUTO 11018KT SCT021 SCT029 BKN042 28/24 A3008 RMK A01
KATP 191655Z AUTO 10017KT 10SM SCT021 SCT029 28/24 A3009 RMK A01
KATP 191635Z AUTO 10016KT 10SM FEW021 28/23 A3008 RMK A01
KATP 191615Z AUTO 10016KT 10SM FEW024 FEW031 FEW042 28/23 A3009 RMK A01
KATP 191555Z AUTO 10018KT 10SM SCT023 BKN031 BKN041 28/23 A3009 RMK A01
KATP 191535Z AUTO 10019KT 10SM SCT022 SCT029 BKN033 28/23 A3009 RMK A01
KATP 191515Z AUTO 10016KT 9SM SCT021 SCT029 BKN041 28/23 A3009 RMK A01
KATP 191455Z AUTO 08019KT 9SM BKN021 BKN027 BKN035 28/23 A3008 RMK A01
KATP 191435Z AUTO 10020KT 9SM BKN022 BKN029 BKN035 28/24 A3008 RMK A01
KATP 191415Z AUTO 09015KT 9SM SCT023 BKN031 BKN041 28/24 A3008 RMK A01
KATP 191355Z AUTO 09012G17KT 10SM FEW025 FEW033 28/23 A3008 RMK A01
KATP 191335Z AUTO 11016KT 10SM CLR 28/22 A3007 RMK A01
KATP 191315Z AUTO 10016KT 10SM FEW025 SCT032 SCT038 28/22 A3006 RMK A01
KATP 191255Z AUTO 12013KT 10SM BKN024 BKN029 OVC055 27/23 A3006 RMK A01
KATP 191235Z AUTO 08015KT 10SM SCT024 BKN028 BKN035 27/24 A3005 RMK A01
KATP 191215Z AUTO 08016KT 10SM FEW019 SCT025 BKN035 27/23 A3004 RMK A01
KATP 191155Z AUTO 10018KT 10SM FEW024 SCT030 SCT036 27/23 A3005 RMK A01
KATP 191135Z AUTO 10015KT 10SM SCT023 SCT029 27/23 A3004 RMK A01
KATP 191115Z AUTO 07017KT 10SM CLR 27/23 A3004 RMK A01
KATP 191055Z AUTO 07019KT 9SM CLR 27/23 A3003 RMK A01
KATP 191035Z AUTO 08019KT 10SM CLR 27/23 A3003 RMK A01
KATP 191015Z AUTO 08020KT 9SM FEW020 FEW037 27/23 A3003 RMK A01
KATP 190955Z AUTO 08018KT 9SM FEW021 FEW050 27/23 A3003 RMK A01
KATP 190935Z AUTO 09020KT 9SM FEW022 SCT031 BKN049 27/23 A3002 RMK A01
KATP 190915Z AUTO 08022KT 9SM FEW022 SCT026 BKN032 27/23 A3002 RMK A01
KATP 190855Z AUTO 07021KT 9SM BKN025 BKN032 BKN037 27/22 A3002 RMK A01
KATP 190835Z AUTO 08021KT 9SM SCT023 BKN028 BKN032 27/23 A3003 RMK A01
KATP 190815Z AUTO 08021KT 9SM FEW024 SCT028 SCT034 27/22 A3003 RMK A01
KATP 190755Z AUTO 09018KT 10SM SCT026 27/22 A3003 RMK A01
KATP 190735Z AUTO 08022KT 10SM SCT026 SCT031 SCT040 27/22 A3003 RMK A01
KATP 190715Z AUTO 09021KT 9SM FEW024 FEW030 SCT035 27/22 A3004 RMK A01
KATP 190655Z AUTO 09021KT 10SM SCT028 BKN036 BKN041 27/22 A3005 RMK A01
KATP 190635Z AUTO 09020KT 9SM BKN029 BKN038 27/22 A3005 RMK A01
KATP 190615Z AUTO 08021KT 10SM SCT027 BKN033 BKN039 27/22 A3006 RMK A01
KATP 190555Z AUTO 09019G24KT 10SM FEW025 SCT029 BKN043 27/22 A3006 RMK A01
KATP 190535Z AUTO 09020KT 10SM FEW025 FEW045 27/22 A3006 RMK A01
KATP 190515Z AUTO 09019KT 10SM FEW028 FEW045 27/22 A3007 RMK A01
KATP 190455Z AUTO 08020KT 10SM FEW029 FEW039 27/21 A3007 RMK A01
KATP 190435Z AUTO 08020KT 10SM FEW028 FEW035 27/21 A3008 RMK A01
KATP 190415Z AUTO 08021KT 10SM FEW028 SCT034 27/21 A3008 RMK A01
KATP 190355Z AUTO 09020KT 10SM FEW030 FEW039 27/21 A3009 RMK A01
KATP 190335Z AUTO 09019KT 10SM FEW031 SCT038 27/21 A3009 RMK A01
KATP 190315Z AUTO 08020KT 10SM FEW033 27/21 A3009 RMK A01
KATP 190255Z AUTO 09020KT 10SM FEW033 FEW040 27/21 A3008 RMK A01
KATP 190235Z AUTO 08021KT 10SM FEW030 SCT037 SCT042 27/21 A3008 RMK A01
KATP 190215Z AUTO 07022KT 10SM SCT027 BKN032 OVC050 27/22 A3008 RMK A01
KATP 190150Z AUTO 07022KT 10SM SCT028 BKN035 BKN049 27/22 A3008 RMK A01
KATP 190135Z AUTO 07023KT 10SM FEW034 FEW042 FEW049 27/21 A3007 RMK A01
KATP 190115Z AUTO 08021KT 10SM FEW027 FEW032 SCT042 27/22 A3006 RMK A01
KATP 190055Z AUTO 07022KT 10SM SCT028 SCT036 BKN045 27/22 A3006 RMK A01
KATP 190035Z AUTO 07022KT 10SM BKN027 BKN034 BKN040 27/22 A3006 RMK A01
KATP 190015Z AUTO 07021KT 10SM FEW028 SCT034 27/22 A3005 RMK A01
KATP 182355Z AUTO 07022KT 10SM SCT028 SCT036 BKN055 27/22 A3004 RMK A01
KATP 182335Z AUTO 08021KT 10SM SCT027 BKN033 BKN045 27/22 A3005 RMK A01
KATP 182315Z AUTO 07022KT 10SM SCT027 BKN032 OVC047 27/22 A3004 RMK A01
KATP 182255Z AUTO 05021KT 10SM SCT027 BKN035 BKN042 27/22 A3003 RMK A01
KATP 182235Z AUTO 06021KT 10SM SCT026 SCT030 BKN035 27/22 A3003 RMK A01
KATP 182215Z AUTO 07021KT 10SM BKN027 BKN035 BKN045 27/22 A3004 RMK A01
KATP 182155Z AUTO 07021KT 10SM SCT028 SCT034 SCT044 27/22 A3004 RMK A01
KATP 182135Z AUTO 07019KT 10SM BKN027 BKN035 BKN044 27/22 A3004 RMK A01
KATP 182115Z AUTO 07020KT 10SM BKN026 BKN033 27/22 A3004 RMK A01
KATP 182055Z AUTO 06020KT 10SM FEW024 27/22 A3004 RMK A01
KATP 182035Z AUTO 07021KT 10SM FEW025 FEW038 27/22 A3004 RMK A01
KATP 182015Z AUTO 06020KT 10SM FEW027 SCT035 SCT041 27/22 A3004 RMK A01
KATP 181955Z AUTO 07019KT 10SM SCT027 SCT034 SCT040 27/22 A3004 RMK A01
KATP 181935Z AUTO 07019KT 10SM SCT026 27/22 A3004 RMK A01
KATP 181915Z AUTO 06018KT 10SM FEW026 27/22 A3005 RMK A01
KATP 181855Z AUTO 06019KT 10SM FEW024 FEW033 27/22 A3005 RMK A01
KATP 181835Z AUTO 07020KT 10SM FEW023 27/22 A3005 RMK A01
KATP 181815Z AUTO 07020KT 9SM SCT023 27/22 A3006 RMK A01
KATP 181755Z AUTO 08021KT 10SM SCT024 SCT029 SCT036 28/22 A3007 RMK A01
KATP 181735Z AUTO 07021KT 10SM FEW024 SCT030 SCT036 28/22 A3007 RMK A01
KATP 181715Z AUTO 07022KT 10SM SCT024 SCT034 SCT041 27/22 A3008 RMK A01
KATP 181655Z AUTO 07021KT 10SM FEW027 FEW042 FEW048 27/22 A3008 RMK A01
KATP 181635Z AUTO 06021KT 10SM SCT025 SCT036 BKN044 27/22 A3008 RMK A01
KATP 181615Z AUTO 07021KT 10SM SCT025 27/22 A3009 RMK A01
KATP 181555Z AUTO 07021KT 10SM FEW029 27/22 A3008 RMK A01
KATP 181535Z AUTO 06020KT 10SM FEW024 FEW028 FEW033 28/22 A3008 RMK A01
KATP 181515Z AUTO 06022KT 10SM FEW023 FEW028 SCT034 27/22 A3009 RMK A01
KATP 181455Z AUTO 07021KT 10SM FEW025 SCT033 SCT043 27/22 A3009 RMK A01
KATP 181435Z AUTO 06020KT 10SM FEW025 SCT033 SCT041 27/22 A3009 RMK A01
KATP 181415Z AUTO 06019KT 10SM FEW025 SCT036 SCT042 27/22 A3008 RMK A01
KATP 181355Z AUTO 06019KT 10SM SCT025 SCT034 27/22 A3008 RMK A01
KATP 181335Z AUTO 07019KT 10SM FEW026 SCT033 27/22 A3007 RMK A01
KATP 181315Z AUTO 06019KT 10SM FEW027 27/22 A3006 RMK A01
KATP 181255Z AUTO 06021KT 10SM SCT026 SCT030 27/22 A3005 RMK A01
KATP 181235Z AUTO 07021KT 10SM SCT027 SCT043 27/22 A3005 RMK A01
KATP 181215Z AUTO 07020KT 10SM BKN025 BKN033 27/22 A3005 RMK A01
KATP 181155Z AUTO 07021KT 10SM SCT025 BKN033 BKN041 27/22 A3004 RMK A01
KATP 181135Z AUTO 07022KT 10SM FEW024 SCT041 SCT047 27/22 A3003 RMK A01
KATP 181115Z AUTO 07021KT 10SM FEW024 FEW030 SCT047 27/22 A3003 RMK A01
KATP 181055Z AUTO 06022KT 10SM FEW024 SCT031 SCT039 27/22 A3003 RMK A01
KATP 181035Z AUTO 06020KT 10SM SCT025 SCT031 BKN047 27/22 A3003 RMK A01
KATP 181015Z AUTO 05019KT 10SM SCT023 BKN032 OVC040 27/22 A3003 RMK A01
KATP 180955Z AUTO 06019KT 10SM SCT023 BKN028 OVC040 27/22 A3002 RMK A01
KATP 180935Z AUTO 06018KT 10SM BKN025 BKN031 OVC040 26/22 A3002 RMK A01
KATP 180915Z AUTO 06019KT 10SM SCT023 BKN030 OVC060 27/22 A3002 RMK A01
KATP 180855Z AUTO 06020KT 10SM SCT024 BKN030 OVC050 27/22 A3002 RMK A01
KATP 180835Z AUTO 07020KT 10SM SCT023 BKN028 OVC041 27/22 A3002 RMK A01
KATP 180815Z AUTO 07021KT 10SM BKN024 BKN028 OVC045 27/22 A3002 RMK A01